createdAt,value
2022-08-16T00:01:45.076Z,26.08
2022-08-16T00:06:46.649Z,16.05
2022-08-16T00:11:48.169Z,14.75
2022-08-16T00:17:00.549Z,18.58
2022-08-16T00:22:13.634Z,22.15
2022-08-16T00:27:17.547Z,18.50
2022-08-16T00:32:19.190Z,16.05
2022-08-16T00:37:25.059Z,16.27
2022-08-16T00:42:46.395Z,15.32
2022-08-16T00:47:56.413Z,15.68
2022-08-16T00:52:58.125Z,12.50
2022-08-16T00:58:00.980Z,14.82
2022-08-16T01:08:36.432Z,13.10
2022-08-16T01:13:29.120Z,16.33
2022-08-16T01:18:40.638Z,10.35
2022-08-16T01:24:53.418Z,14.05
2022-08-16T01:29:57.234Z,19.20
2022-08-16T01:35:00.745Z,13.75
2022-08-16T01:40:03.917Z,14.05
2022-08-16T01:45:09.049Z,13.00
2022-08-16T01:55:35.403Z,15.57
2022-08-16T02:00:37.399Z,14.90
2022-08-16T02:05:40.775Z,13.55
2022-08-16T02:10:48.389Z,18.60
2022-08-16T02:15:50.583Z,14.65
2022-08-16T02:20:54.171Z,16.30
2022-08-16T02:25:55.692Z,17.45
2022-08-16T02:30:58.198Z,15.73
2022-08-16T02:36:00.121Z,16.85
2022-08-16T02:41:07.360Z,17.80
2022-08-16T02:46:11.472Z,17.23
2022-08-16T02:51:12.991Z,14.48
2022-08-16T03:01:24.578Z,15.93
2022-08-16T03:06:38.911Z,17.80
2022-08-16T03:11:44.819Z,15.25
2022-08-16T03:16:59.238Z,17.45
2022-08-16T03:22:01.504Z,21.40
2022-08-16T03:27:03.193Z,23.95
2022-08-16T03:32:04.831Z,19.42
2022-08-16T03:37:06.719Z,18.38
2022-08-16T03:42:09.718Z,19.08
2022-08-16T03:47:11.737Z,19.20
2022-08-16T03:52:13.481Z,21.08
2022-08-16T03:57:15.718Z,21.67
2022-08-16T04:02:22.810Z,23.42
2022-08-16T04:07:33.750Z,24.65
2022-08-16T04:12:54.458Z,22.88
2022-08-16T04:17:57.846Z,21.10
2022-08-16T04:22:59.587Z,22.77
2022-08-16T04:28:54.593Z,22.85
2022-08-16T04:33:27.390Z,25.13
2022-08-16T04:38:30.452Z,22.10
2022-08-16T04:43:33.371Z,21.67
2022-08-16T04:48:34.993Z,22.95
2022-08-16T04:53:36.789Z,21.75
2022-08-16T04:58:46.018Z,18.33
2022-08-16T05:03:59.671Z,19.25
2022-08-16T05:14:06.857Z,19.25
2022-08-16T05:19:11.791Z,17.63
2022-08-16T05:24:15.368Z,20.17
2022-08-16T05:29:57.357Z,22.80
2022-08-16T05:34:47.904Z,25.58
2022-08-16T05:39:55.428Z,21.52
2022-08-16T05:44:57.612Z,20.75
2022-08-16T05:49:59.204Z,22.40
2022-08-16T05:55:01.714Z,20.48
2022-08-16T06:00:09.093Z,20.42
2022-08-16T06:05:11.450Z,14.40
2022-08-16T06:10:31.922Z,17.38
2022-08-16T06:15:35.263Z,18.50
2022-08-16T06:20:38.069Z,16.83
2022-08-16T06:25:57.513Z,20.33
2022-08-16T06:31:01.358Z,20.73
2022-08-16T06:36:03.761Z,17.63
2022-08-16T06:46:09.696Z,21.33
2022-08-16T06:51:11.502Z,17.38
2022-08-16T06:56:23.053Z,22.90
2022-08-16T07:01:43.231Z,20.60
2022-08-16T07:06:46.735Z,21.92
2022-08-16T07:11:52.188Z,24.30
2022-08-16T07:16:57.950Z,22.52
2022-08-16T07:22:02.338Z,22.05
2022-08-16T07:27:08.634Z,21.20
2022-08-16T07:32:14.035Z,21.73
2022-08-16T07:37:15.574Z,26.13
2022-08-16T07:42:25.907Z,18.85
2022-08-16T07:47:31.636Z,20.40
2022-08-16T07:52:34.186Z,27.65
2022-08-16T07:57:44.523Z,21.48
2022-08-16T08:02:57.230Z,23.95
2022-08-16T08:07:58.768Z,20.98
2022-08-16T08:13:01.823Z,19.73
2022-08-16T08:18:30.602Z,19.30
2022-08-16T08:23:27.608Z,15.90
2022-08-16T08:28:31.917Z,18.80
2022-08-16T08:33:34.033Z,19.73
2022-08-16T08:38:43.715Z,24.65
2022-08-16T08:43:47.314Z,22.88
2022-08-16T08:49:00.108Z,20.08
2022-08-16T08:54:09.262Z,21.77
2022-08-16T08:59:13.530Z,25.58
2022-08-16T09:04:21.469Z,18.17
2022-08-16T09:09:23.228Z,24.63
2022-08-16T09:14:25.094Z,19.52
2022-08-16T09:19:32.966Z,23.42
2022-08-16T09:24:52.759Z,23.83
2022-08-16T09:30:00.054Z,22.42
2022-08-16T09:35:03.019Z,23.60
2022-08-16T09:40:32.801Z,18.42
2022-08-16T09:45:29.059Z,18.73
2022-08-16T09:50:37.246Z,25.40
2022-08-16T09:55:44.551Z,21.42
2022-08-16T10:00:46.504Z,20.98
2022-08-16T10:05:48.466Z,23.38
2022-08-16T10:11:09.536Z,25.08
2022-08-16T10:21:16.577Z,24.92
2022-08-16T10:27:03.784Z,27.25
2022-08-16T10:31:45.291Z,24.13
2022-08-16T10:36:48.219Z,27.10
2022-08-16T10:41:55.898Z,21.65
2022-08-16T10:46:57.448Z,21.52
2022-08-16T10:52:01.317Z,22.20
2022-08-16T10:57:05.239Z,26.83
2022-08-16T11:02:57.793Z,23.95
2022-08-16T11:07:43.335Z,23.92
2022-08-16T11:12:46.704Z,21.48
2022-08-16T11:18:48.297Z,19.63
2022-08-16T11:23:11.972Z,25.38
2022-08-16T11:29:12.412Z,21.05
2022-08-16T11:33:55.186Z,28.20
2022-08-16T11:39:00.212Z,19.08
2022-08-16T11:44:02.847Z,22.30
2022-08-16T11:49:08.635Z,26.33
2022-08-16T11:54:20.526Z,20.33
2022-08-16T11:59:24.403Z,22.40
2022-08-16T12:04:30.387Z,22.20
2022-08-16T12:09:31.943Z,24.50
2022-08-16T12:14:35.311Z,24.90
2022-08-16T12:19:39.151Z,20.52
2022-08-16T12:24:40.701Z,24.92
2022-08-16T12:29:44.799Z,26.55
2022-08-16T12:34:50.516Z,24.58
2022-08-16T12:39:56.102Z,28.67
2022-08-16T12:44:57.782Z,26.17
2022-08-16T12:49:59.965Z,22.20
2022-08-16T12:55:01.946Z,29.00
2022-08-16T13:00:12.719Z,29.98
2022-08-16T13:05:28.723Z,21.27
2022-08-16T13:10:38.030Z,22.38
2022-08-16T13:15:51.705Z,22.70
2022-08-16T13:21:01.281Z,29.10
2022-08-16T13:26:05.258Z,28.20
2022-08-16T13:31:09.417Z,28.95
2022-08-16T13:36:21.345Z,34.33
2022-08-16T13:41:33.644Z,29.52
2022-08-16T13:46:35.422Z,24.75
2022-08-16T13:51:39.196Z,24.63
2022-08-16T13:56:41.371Z,29.85
2022-08-16T14:01:43.083Z,21.23
2022-08-16T14:06:46.712Z,26.30
2022-08-16T14:11:49.477Z,25.23
2022-08-16T14:16:55.081Z,22.27
2022-08-16T14:22:14.842Z,26.42
2022-08-16T14:27:21.355Z,19.23
2022-08-16T14:32:33.069Z,20.40
2022-08-16T14:37:35.810Z,18.35
2022-08-16T14:42:37.409Z,21.67
2022-08-16T14:47:39.019Z,23.38
2022-08-16T14:52:55.173Z,24.88
2022-08-16T14:57:58.341Z,14.48
2022-08-16T15:03:00.753Z,26.42
2022-08-16T15:08:03.998Z,20.58
2022-08-16T15:13:06.634Z,15.90
2022-08-16T15:18:11.815Z,19.23
2022-08-16T15:23:13.909Z,18.77
2022-08-16T15:28:31.121Z,19.70
2022-08-16T15:33:35.155Z,17.77
2022-08-16T15:39:02.499Z,20.50
2022-08-16T15:44:03.562Z,21.70
2022-08-16T15:49:13.652Z,21.27
2022-08-16T15:54:20.913Z,20.65
2022-08-16T15:59:48.644Z,21.55
2022-08-16T16:04:51.727Z,20.20
2022-08-16T16:09:55.477Z,23.13
2022-08-16T16:15:00.525Z,18.38
2022-08-16T16:25:04.660Z,25.13
2022-08-16T16:30:33.590Z,27.08
2022-08-16T16:35:28.528Z,23.38
2022-08-16T16:40:35.357Z,30.90
2022-08-16T16:45:37.268Z,30.58
2022-08-16T16:50:39.389Z,33.75
2022-08-16T16:55:40.992Z,33.13
2022-08-16T17:00:42.733Z,33.00
2022-08-16T17:06:00.206Z,31.25
2022-08-16T17:11:04.883Z,29.60
2022-08-16T17:16:18.990Z,29.25
2022-08-16T17:21:21.636Z,30.20
2022-08-16T17:26:30.264Z,27.23
2022-08-16T17:31:40.614Z,27.27
2022-08-16T17:36:45.281Z,27.85
2022-08-16T17:41:56.882Z,31.67
2022-08-16T17:46:58.399Z,26.40
2022-08-16T17:52:00.020Z,23.33
2022-08-16T18:02:42.051Z,22.85
2022-08-16T18:07:24.883Z,19.70
2022-08-16T18:12:50.704Z,20.88
2022-08-16T18:17:53.114Z,22.85
2022-08-16T18:22:54.667Z,19.35
2022-08-16T18:27:56.245Z,24.45
2022-08-16T18:32:57.800Z,26.50
2022-08-16T18:37:59.378Z,24.52
2022-08-16T18:43:03.263Z,20.48
2022-08-16T18:48:05.604Z,24.05
2022-08-16T18:53:08.155Z,22.85
2022-08-16T18:58:09.778Z,21.65
2022-08-16T19:03:25.660Z,24.48
2022-08-16T19:08:27.241Z,23.10
2022-08-16T19:13:29.066Z,27.67
2022-08-16T19:18:36.663Z,24.48
2022-08-16T19:23:39.043Z,21.50
2022-08-16T19:28:58.159Z,20.73
2022-08-16T19:34:01.593Z,24.15
2022-08-16T19:39:06.099Z,22.20
2022-08-16T19:44:07.735Z,25.13
2022-08-16T19:49:09.264Z,21.90
2022-08-16T19:59:20.082Z,28.02
2022-08-16T20:04:23.120Z,20.80
2022-08-16T20:14:26.702Z,22.65
2022-08-16T20:19:29.149Z,25.55
2022-08-16T20:24:35.266Z,24.35
2022-08-16T20:29:38.416Z,25.17
2022-08-16T20:34:41.462Z,22.60
2022-08-16T20:39:47.069Z,23.85
2022-08-16T20:44:48.630Z,25.50
2022-08-16T20:49:50.680Z,24.33
2022-08-16T20:54:52.436Z,25.88
2022-08-16T21:04:55.736Z,25.27
2022-08-16T21:09:57.317Z,26.42
2022-08-16T21:15:04.076Z,26.27
2022-08-16T21:20:06.071Z,23.67
2022-08-16T21:25:10.702Z,22.38
2022-08-16T21:30:12.995Z,19.63
2022-08-16T21:35:18.233Z,24.80
2022-08-16T21:40:19.790Z,22.42
2022-08-16T21:45:21.315Z,24.35
2022-08-16T21:50:22.864Z,22.23
2022-08-16T21:55:26.360Z,23.85
2022-08-16T22:00:28.143Z,30.02
2022-08-16T22:11:06.632Z,24.33
2022-08-16T22:15:54.040Z,22.73
2022-08-16T22:20:55.665Z,19.73
2022-08-16T22:25:57.450Z,23.35
2022-08-16T22:41:05.132Z,20.55
2022-08-16T22:46:06.859Z,23.88
2022-08-16T22:56:09.789Z,20.88
2022-08-16T23:01:12.128Z,21.75
2022-08-16T23:06:13.894Z,21.15
2022-08-16T23:11:20.958Z,23.55
2022-08-16T23:16:33.251Z,29.60
2022-08-16T23:21:36.961Z,24.85
2022-08-16T23:26:47.670Z,23.98
2022-08-16T23:31:50.164Z,28.52
2022-08-16T23:36:55.347Z,31.80
2022-08-16T23:41:56.972Z,22.60
2022-08-16T23:46:58.961Z,25.65
2022-08-16T23:52:07.630Z,23.13
2022-08-16T23:57:09.159Z,18.60
